x

Caribbean Valley - 76 Nm Ssw Of Plymouth, Montserrat (42060) Wave Buoy

4:50pm - Wed 17th Dec 2014 All times are AST. -4 hours from GMT.

  • Sig Wave height 2.3ft
  • Swell Direction
  • Peak Period 9s
  • Average Period 5s
  • Wind
    7mph, 9mph gusts
  • Sea Temp 83°f
  • Air Temp 81°f
  • Sea Pressure 1013.6mb
  • Caribbean Valley - 76 Nm Ssw Of Plymouth, Montserrat
  • Caribbean Valley - 76 Nm Ssw Of Plymouth, Montserrat

More Historic Weather Station data

Upgrade to MSW Pro to gain access to the past 30 days of data for over 8000 Wavebouys and Weather Stations around the globe.

Join Pro

Comparision Forecast

View Surf forecast
   
Wed 12/17 4:50pm 2.5ft 9s 5s 7 9 mph 1013.6mb 83f 81f
3:50pm 2.5ft 9s 5s 9
mph
1013mb 83f 81f
2:50pm 2.5ft 9s 5s 7 9 mph 1013.3mb 83f 81f
1:50pm 2.5ft 6s 5s 7 9 mph 1013.8mb 83f 81f
12:50pm 2.5ft 9s 5s 7 9 mph 1014.8mb 83f 81f
11:50am 2.5ft 9s 5s 9 11 mph 1015.9mb 83f 81f
10:50am 2.5ft 9s 5s 11 13 mph 1016.6mb 83f 81f
9:50am 2.5ft 10s 5s 9 11 mph 1016.8mb 83f 81f
8:50am 2.5ft 7s 5s 9 11 mph 1016.5mb 82f 81f
7:50am 2.5ft 6s 5s 7 11 mph 1016mb 82f 81f
6:50am 2.5ft 10s 5s 7 9 mph 1015.3mb 82f 80f
5:50am 3ft 9s 5s 9
mph
1014.5mb 82f 80f
4:50am 3ft 7s 5s 11 13 mph 1014.1mb 82f 80f
3:50am 3ft 7s 5s 11
mph
1014mb 82f 80f
2:50am 3.5ft 10s 5s 9 11 mph 1014.5mb 82f 80f
1:50am 3.5ft 7s 5s 9 11 mph 1015.1mb 82f 79f
12:50am 3.5ft 10s 5s 13 16 mph 1015.6mb 82f 79f
Tue 12/16 11:50pm 3ft 8s 5s 11 13 mph 1015.9mb 82f 80f
10:50pm 2.5ft 7s 5s 11 13 mph 1016.5mb 82f 80f
9:50pm 2.5ft 10s 6s 11 13 mph 1016.7mb 82f 80f
8:50pm 2.5ft 9s 6s 11
mph
1016.6mb 82f 81f
7:50pm 2.5ft 10s 6s 9
mph
1016mb 82f 80f
6:50pm 2.5ft 10s 5s 7 9 mph 1015.2mb 82f 80f
5:50pm 2.5ft 10s 5s 7 9 mph 1014.8mb 82f 81f
4:50pm 2.5ft 9s 5s 7 9 mph 1014.2mb 83f 81f
3:50pm 2.5ft 9s 5s 7 9 mph 1013.9mb 83f 81f
1:50pm 2.5ft 10s 5s 7 9 mph 1014.5mb 83f 81f
12:50pm 2.5ft 10s 5s 9 11 mph 1015.3mb 83f 81f
11:50am 2.5ft 10s 5s 9 11 mph 1015.9mb 82f 81f
10:50am 2.5ft 10s 5s 9 11 mph 1016.4mb 82f 81f
9:50am 2ft 9s 5s 9 11 mph 1016.8mb 82f 81f
7:50am 2.5ft 10s 6s 9 11 mph 1015.5mb 82f 81f
6:50am 2.5ft 9s 6s 9 11 mph 1014.6mb 82f 80f
5:50am 2.5ft 11s 6s 7 9 mph 1014.1mb 82f 80f
4:50am 2ft 11s 6s 7 9 mph 1013.7mb 82f 80f
3:50am 2ft 11s 6s 7 9 mph 1013.3mb 82f 80f
2:50am 2.5ft 11s 6s 4 9 mph 1013.3mb 82f 80f
1:50am 2.5ft 10s 6s 7 9 mph 1013.8mb 82f 80f
12:50am 2ft 9s 6s 7 9 mph 1014mb 82f 80f
Mon 12/15 11:50pm 2.5ft 8s 6s 7 9 mph 1014.2mb 82f 80f
10:50pm 2.5ft 10s 6s 7
mph
1014.6mb 82f 81f
9:50pm 2.5ft 8s 6s 7 9 mph 1014.8mb 82f 81f
8:50pm 2ft 11s 6s 4 7 mph 1014.5mb 82f 81f
7:50pm 2.5ft 9s 6s 4 7 mph 1014mb 82f 81f
6:50pm 2ft 11s 6s 7 9 mph 1013.2mb 83f 81f
5:50pm 2.5ft 11s 6s 7 9 mph 1012.7mb 83f 81f
4:50pm 2.5ft 11s 6s 9 11 mph 1012mb 83f 81f
3:50pm 2.5ft 11s 6s 9 13 mph 1011.7mb 83f 81f
2:50pm 2.5ft 10s 6s 7 9 mph 1012mb 83f 81f
1:50pm 2.5ft 11s 6s 7 9 mph 1012.6mb 83f 81f
12:50pm 2.5ft 11s 6s 7 9 mph 1013.6mb 83f 81f
11:50am 2.5ft 11s 6s 7 9 mph 1014.3mb 83f 81f
10:50am 2.5ft 11s 7s 7 9 mph 1014.8mb 82f 81f
9:50am 2.5ft 10s 6s 7
mph
1014.9mb 82f 81f
8:50am 2.5ft 11s 7s 4 7 mph 1014.2mb 82f 81f
7:50am 2.5ft 11s 6s 7 9 mph 1013mb 82f 81f
6:50am 2.5ft 11s 6s 7
mph
1011.9mb 82f 80f
5:50am 2.5ft 11s 6s 4
mph
1011.5mb 82f 80f
4:50am 2.5ft 11s 6s 4 7 mph 1010.9mb 82f 80f
3:50am 3ft 11s 6s 7 9 mph 1010.8mb 82f 80f
2:50am 2.5ft 11s 6s 9 11 mph 1010.7mb 82f 80f
1:50am 3ft 11s 6s 11 13 mph 1011.2mb 82f 80f
12:50am 3ft 11s 6s 9 11 mph 1011.8mb 82f 80f
Sun 12/14 11:50pm 3ft 11s 6s 11 13 mph 1011.8mb 82f 80f
10:50pm 3ft 9s 6s 9 11 mph 1012mb 82f 80f
9:50pm 3ft 11s 6s 9 11 mph 1012mb 82f 80f
8:50pm 3ft 11s 6s 11 13 mph 1012mb 82f 81f
7:50pm 3ft 11s 6s 9 11 mph 1011.7mb 82f 81f
6:50pm 3ft 11s 6s 9 11 mph 1011.2mb 82f 81f
5:50pm 3ft 11s 6s 9 11 mph 1010.8mb 82f 81f
4:50pm 3.5ft 11s 6s 9 11 mph 1010.5mb 83f 81f
3:50pm 3.5ft 11s 6s 11 13 mph 1010.2mb 83f 81f
2:50pm 3.5ft 11s 5s 11
mph
1010.7mb 83f 81f
1:50pm 3.5ft 10s 5s 11 13 mph 1011.2mb 83f 81f
12:50pm 3.5ft 11s 6s 9 11 mph 1012.1mb 82f 81f
11:50am 3.5ft 11s 6s 9 13 mph 1013mb 82f 81f
10:50am 3.5ft 11s 6s 9 11 mph 1013.5mb 82f 81f
9:50am 3.5ft 11s 6s 11 13 mph 1013.7mb 82f 81f
8:50am 3.5ft 9s 6s 11 13 mph 1013.2mb 82f 81f
7:50am 4ft 11s 6s 9 11 mph 1012.4mb 82f 81f
6:50am 3.5ft 12s 5s 11 13 mph 1011.4mb 82f 80f
5:50am 3.5ft 10s 5s 13 18 mph 1010.7mb 82f 80f
4:50am 3.5ft 11s 5s 16 18 mph 1010.3mb 82f 80f
3:50am 4ft 12s 6s 13 18 mph 1010.2mb 82f 80f
2:50am 4ft 8s 5s 13 16 mph 1010.5mb 82f 80f
1:50am 4ft 11s 5s 13 16 mph 1011.2mb 82f 80f
12:50am 4.5ft 12s 6s 13
mph
1011.7mb 82f 81f
Sat 12/13 11:50pm 4ft 11s 6s 13 16 mph 1011.7mb 82f 81f
10:50pm 4.5ft 11s 6s 11 13 mph 1012.2mb 82f 81f